sensor_id;sensor_type;location;lat;lon;timestamp;pressure;altitude;pressure_sealevel;temperature;humidity
64189;BME280;50493;50.970;10.082;2023-04-01T00:01:45;97438.34;;;8.85;70.45
64189;BME280;50493;50.970;10.082;2023-04-01T00:04:10;97439.41;;;8.62;70.79
64189;BME280;50493;50.970;10.082;2023-04-01T00:06:37;97432.91;;;9.10;69.51
64189;BME280;50493;50.970;10.082;2023-04-01T00:09:03;97441.50;;;9.12;69.62
64189;BME280;50493;50.970;10.082;2023-04-01T00:11:28;97440.50;;;8.96;69.11
64189;BME280;50493;50.970;10.082;2023-04-01T00:13:54;97439.59;;;8.97;69.36
64189;BME280;50493;50.970;10.082;2023-04-01T00:16:19;97431.41;;;8.86;70.03
64189;BME280;50493;50.970;10.082;2023-04-01T00:18:45;97428.25;;;9.17;69.12
64189;BME280;50493;50.970;10.082;2023-04-01T00:21:12;97431.56;;;9.21;69.14
64189;BME280;50493;50.970;10.082;2023-04-01T00:23:39;97435.72;;;9.25;69.35
64189;BME280;50493;50.970;10.082;2023-04-01T00:26:04;97431.44;;;9.41;68.11
64189;BME280;50493;50.970;10.082;2023-04-01T00:28:30;97436.66;;;9.41;68.52
64189;BME280;50493;50.970;10.082;2023-04-01T00:30:56;97439.25;;;9.41;68.15
64189;BME280;50493;50.970;10.082;2023-04-01T00:33:21;97428.03;;;9.39;68.22
64189;BME280;50493;50.970;10.082;2023-04-01T00:35:47;97430.19;;;9.31;68.81
64189;BME280;50493;50.970;10.082;2023-04-01T00:38:13;97436.09;;;9.35;68.09
64189;BME280;50493;50.970;10.082;2023-04-01T00:40:41;97430.56;;;9.60;68.41
64189;BME280;50493;50.970;10.082;2023-04-01T00:43:13;97427.47;;;9.52;67.48
64189;BME280;50493;50.970;10.082;2023-04-01T00:45:40;97430.09;;;9.69;66.45
64189;BME280;50493;50.970;10.082;2023-04-01T00:48:10;97434.38;;;9.70;67.03
64189;BME280;50493;50.970;10.082;2023-04-01T00:50:37;97427.59;;;9.49;67.66
64189;BME280;50493;50.970;10.082;2023-04-01T00:53:05;97425.56;;;8.80;69.02
64189;BME280;50493;50.970;10.082;2023-04-01T00:55:34;97429.63;;;8.67;70.51
64189;BME280;50493;50.970;10.082;2023-04-01T00:58:03;97427.84;;;8.49;71.11
64189;BME280;50493;50.970;10.082;2023-04-01T01:00:30;97424.84;;;8.58;71.50
64189;BME280;50493;50.970;10.082;2023-04-01T01:02:56;97424.28;;;8.70;70.18
64189;BME280;50493;50.970;10.082;2023-04-01T01:05:29;97426.06;;;9.08;70.27
64189;BME280;50493;50.970;10.082;2023-04-01T01:08:01;97424.03;;;8.95;69.80
64189;BME280;50493;50.970;10.082;2023-04-01T01:10:31;97428.25;;;8.98;69.50
64189;BME280;50493;50.970;10.082;2023-04-01T01:13:06;97423.66;;;9.22;69.67
64189;BME280;50493;50.970;10.082;2023-04-01T01:15:39;97425.72;;;9.16;68.38
64189;BME280;50493;50.970;10.082;2023-04-01T01:18:11;97419.66;;;8.96;68.96
64189;BME280;50493;50.970;10.082;2023-04-01T01:21:03;97417.16;;;9.31;69.35
64189;BME280;50493;50.970;10.082;2023-04-01T01:24:11;97422.56;;;9.45;69.00
64189;BME280;50493;50.970;10.082;2023-04-01T01:26:55;97420.47;;;9.35;68.54
64189;BME280;50493;50.970;10.082;2023-04-01T01:29:39;97420.25;;;9.57;68.42
64189;BME280;50493;50.970;10.082;2023-04-01T01:32:12;97423.66;;;9.59;69.22
64189;BME280;50493;50.970;10.082;2023-04-01T01:34:48;97419.69;;;9.50;69.45
64189;BME280;50493;50.970;10.082;2023-04-01T01:37:21;97422.56;;;9.45;69.61
64189;BME280;50493;50.970;10.082;2023-04-01T01:39:51;97417.69;;;9.01;69.96
64189;BME280;50493;50.970;10.082;2023-04-01T01:42:20;97416.69;;;8.85;72.41
64189;BME280;50493;50.970;10.082;2023-04-01T01:44:49;97421.47;;;9.13;71.87
64189;BME280;50493;50.970;10.082;2023-04-01T01:47:16;97415.13;;;8.61;74.09
64189;BME280;50493;50.970;10.082;2023-04-01T01:49:43;97410.06;;;8.77;73.15
64189;BME280;50493;50.970;10.082;2023-04-01T01:52:09;97410.34;;;8.71;73.15
64189;BME280;50493;50.970;10.082;2023-04-01T01:54:36;97409.16;;;8.20;73.11
64189;BME280;50493;50.970;10.082;2023-04-01T01:57:04;97411.69;;;8.61;76.21
64189;BME280;50493;50.970;10.082;2023-04-01T01:59:32;97413.41;;;8.41;78.26
64189;BME280;50493;50.970;10.082;2023-04-01T02:01:59;97406.91;;;8.52;74.62
64189;BME280;50493;50.970;10.082;2023-04-01T02:04:25;97425.16;;;8.10;73.26
64189;BME280;50493;50.970;10.082;2023-04-01T02:06:56;97416.63;;;8.27;75.88
64189;BME280;50493;50.970;10.082;2023-04-01T02:09:25;97425.56;;;8.22;76.20
64189;BME280;50493;50.970;10.082;2023-04-01T02:11:56;97413.97;;;8.29;75.83
64189;BME280;50493;50.970;10.082;2023-04-01T02:14:24;97427.88;;;8.28;75.88
64189;BME280;50493;50.970;10.082;2023-04-01T02:16:54;97413.28;;;8.44;75.04
64189;BME280;50493;50.970;10.082;2023-04-01T02:19:22;97419.44;;;8.23;75.49
64189;BME280;50493;50.970;10.082;2023-04-01T02:21:53;97417.50;;;8.47;73.41
64189;BME280;50493;50.970;10.082;2023-04-01T02:24:21;97412.09;;;8.12;75.46
64189;BME280;50493;50.970;10.082;2023-04-01T02:26:50;97418.66;;;8.21;74.56
64189;BME280;50493;50.970;10.082;2023-04-01T02:29:20;97418.47;;;8.05;74.59
64189;BME280;50493;50.970;10.082;2023-04-01T02:31:46;97426.47;;;8.21;74.65
64189;BME280;50493;50.970;10.082;2023-04-01T02:34:13;97422.88;;;8.63;72.62
64189;BME280;50493;50.970;10.082;2023-04-01T02:36:38;97424.13;;;8.35;73.03
64189;BME280;50493;50.970;10.082;2023-04-01T02:39:04;97423.22;;;8.55;73.70
64189;BME280;50493;50.970;10.082;2023-04-01T02:41:30;97430.97;;;8.57;73.03
64189;BME280;50493;50.970;10.082;2023-04-01T02:43:56;97427.22;;;8.43;72.69
64189;BME280;50493;50.970;10.082;2023-04-01T02:46:24;97422.94;;;8.42;73.25
64189;BME280;50493;50.970;10.082;2023-04-01T02:48:50;97426.78;;;8.13;74.51
64189;BME280;50493;50.970;10.082;2023-04-01T02:51:15;97429.97;;;8.20;73.17
64189;BME280;50493;50.970;10.082;2023-04-01T02:53:41;97435.13;;;8.01;74.54
64189;BME280;50493;50.970;10.082;2023-04-01T02:56:06;97435.00;;;8.04;74.63
64189;BME280;50493;50.970;10.082;2023-04-01T02:58:32;97430.94;;;8.17;74.04
64189;BME280;50493;50.970;10.082;2023-04-01T03:00:57;97431.28;;;8.30;74.23
64189;BME280;50493;50.970;10.082;2023-04-01T03:03:24;97435.84;;;8.04;74.36
64189;BME280;50493;50.970;10.082;2023-04-01T03:05:49;97428.81;;;8.06;74.13
64189;BME280;50493;50.970;10.082;2023-04-01T03:08:14;97431.94;;;7.94;75.32
64189;BME280;50493;50.970;10.082;2023-04-01T03:10:40;97429.91;;;8.01;74.29
64189;BME280;50493;50.970;10.082;2023-04-01T03:13:05;97431.03;;;7.95;73.68
64189;BME280;50493;50.970;10.082;2023-04-01T03:15:31;97435.91;;;8.23;73.36
64189;BME280;50493;50.970;10.082;2023-04-01T03:17:56;97433.06;;;8.49;73.60
64189;BME280;50493;50.970;10.082;2023-04-01T03:20:23;97425.13;;;8.52;71.37
64189;BME280;50493;50.970;10.082;2023-04-01T03:22:48;97430.19;;;8.93;71.13
64189;BME280;50493;50.970;10.082;2023-04-01T03:25:14;97427.09;;;8.46;72.46
64189;BME280;50493;50.970;10.082;2023-04-01T03:27:39;97425.69;;;8.19;72.27
64189;BME280;50493;50.970;10.082;2023-04-01T03:30:06;97422.31;;;8.56;72.21
64189;BME280;50493;50.970;10.082;2023-04-01T03:32:32;97430.91;;;8.38;70.64
64189;BME280;50493;50.970;10.082;2023-04-01T03:34:57;97427.84;;;8.49;71.43
64189;BME280;50493;50.970;10.082;2023-04-01T03:37:24;97428.84;;;8.46;71.15
64189;BME280;50493;50.970;10.082;2023-04-01T03:39:50;97439.34;;;8.03;72.67
64189;BME280;50493;50.970;10.082;2023-04-01T03:42:15;97431.03;;;7.95;71.48
64189;BME280;50493;50.970;10.082;2023-04-01T03:44:41;97428.53;;;8.33;71.87
64189;BME280;50493;50.970;10.082;2023-04-01T03:47:06;97427.84;;;8.49;70.92
64189;BME280;50493;50.970;10.082;2023-04-01T03:49:34;97430.97;;;8.57;70.42
64189;BME280;50493;50.970;10.082;2023-04-01T03:51:59;97436.66;;;8.25;70.78
64189;BME280;50493;50.970;10.082;2023-04-01T03:54:26;97435.56;;;8.10;71.42
64189;BME280;50493;50.970;10.082;2023-04-01T03:56:51;97449.50;;;8.09;71.00
64189;BME280;50493;50.970;10.082;2023-04-01T03:59:17;97437.97;;;8.36;70.81
64189;BME280;50493;50.970;10.082;2023-04-01T04:01:42;97441.56;;;8.33;70.35
64189;BME280;50493;50.970;10.082;2023-04-01T04:04:10;97446.34;;;8.42;69.65
64189;BME280;50493;50.970;10.082;2023-04-01T04:06:35;97448.41;;;8.55;69.73
64189;BME280;50493;50.970;10.082;2023-04-01T04:09:01;97443.53;;;8.47;70.93
64189;BME280;50493;50.970;10.082;2023-04-01T04:11:27;97447.88;;;8.27;70.74
64189;BME280;50493;50.970;10.082;2023-04-01T04:13:55;97454.28;;;8.60;71.80
64189;BME280;50493;50.970;10.082;2023-04-01T04:16:20;97449.88;;;8.41;71.31
64189;BME280;50493;50.970;10.082;2023-04-01T04:18:46;97461.34;;;8.17;70.87
64189;BME280;50493;50.970;10.082;2023-04-01T04:21:12;97456.56;;;8.87;70.59
64189;BME280;50493;50.970;10.082;2023-04-01T04:23:39;97454.69;;;8.51;71.27
64189;BME280;50493;50.970;10.082;2023-04-01T04:26:06;97455.53;;;8.70;70.22
64189;BME280;50493;50.970;10.082;2023-04-01T04:28:33;97457.13;;;8.93;70.28
64189;BME280;50493;50.970;10.082;2023-04-01T04:30:59;97458.56;;;9.01;68.17
64189;BME280;50493;50.970;10.082;2023-04-01T04:33:26;97460.72;;;8.91;69.91
64189;BME280;50493;50.970;10.082;2023-04-01T04:35:54;97455.69;;;8.67;68.82
64189;BME280;50493;50.970;10.082;2023-04-01T04:38:20;97452.19;;;9.06;68.63
64189;BME280;50493;50.970;10.082;2023-04-01T04:40:45;97460.50;;;9.15;67.79
64189;BME280;50493;50.970;10.082;2023-04-01T04:43:12;97462.63;;;9.06;67.89
64189;BME280;50493;50.970;10.082;2023-04-01T04:45:39;97457.38;;;8.68;69.35
64189;BME280;50493;50.970;10.082;2023-04-01T04:48:05;97459.66;;;8.76;69.00
64189;BME280;50493;50.970;10.082;2023-04-01T04:50:31;97456.91;;;8.79;68.83
64189;BME280;50493;50.970;10.082;2023-04-01T04:52:56;97465.19;;;8.68;69.12
64189;BME280;50493;50.970;10.082;2023-04-01T04:55:22;97463.44;;;8.88;69.05
64189;BME280;50493;50.970;10.082;2023-04-01T04:57:47;97458.69;;;8.98;68.16
64189;BME280;50493;50.970;10.082;2023-04-01T05:00:13;97461.91;;;9.03;67.50
64189;BME280;50493;50.970;10.082;2023-04-01T05:02:40;97465.63;;;8.38;69.93
64189;BME280;50493;50.970;10.082;2023-04-01T05:05:06;97463.41;;;8.69;68.29
64189;BME280;50493;50.970;10.082;2023-04-01T05:07:32;97466.81;;;8.90;68.19
64189;BME280;50493;50.970;10.082;2023-04-01T05:09:58;97457.16;;;8.92;66.39
64189;BME280;50493;50.970;10.082;2023-04-01T05:12:23;97465.78;;;8.94;67.18
64189;BME280;50493;50.970;10.082;2023-04-01T05:14:48;97470.34;;;9.27;67.62
64189;BME280;50493;50.970;10.082;2023-04-01T05:17:14;97462.78;;;9.03;67.25
64189;BME280;50493;50.970;10.082;2023-04-01T05:19:41;97458.31;;;9.05;66.43
64189;BME280;50493;50.970;10.082;2023-04-01T05:22:07;97466.81;;;8.90;67.11
64189;BME280;50493;50.970;10.082;2023-04-01T05:24:32;97448.97;;;9.01;66.98
64189;BME280;50493;50.970;10.082;2023-04-01T05:26:58;97457.72;;;8.79;68.88
64189;BME280;50493;50.970;10.082;2023-04-01T05:29:23;97452.25;;;8.86;67.34
64189;BME280;50493;50.970;10.082;2023-04-01T05:31:49;97461.03;;;8.83;67.36
64189;BME280;50493;50.970;10.082;2023-04-01T05:34:14;97454.47;;;8.95;67.10
64189;BME280;50493;50.970;10.082;2023-04-01T05:36:41;97454.22;;;8.80;68.37
64189;BME280;50493;50.970;10.082;2023-04-01T05:39:07;97460.44;;;8.97;67.99
64189;BME280;50493;50.970;10.082;2023-04-01T05:41:34;97452.34;;;8.24;68.86
64189;BME280;50493;50.970;10.082;2023-04-01T05:43:59;97451.75;;;8.77;67.84
64189;BME280;50493;50.970;10.082;2023-04-01T05:46:25;97453.47;;;8.78;67.87
64189;BME280;50493;50.970;10.082;2023-04-01T05:48:50;97451.94;;;9.12;66.93
64189;BME280;50493;50.970;10.082;2023-04-01T05:51:15;97450.56;;;9.23;66.17
64189;BME280;50493;50.970;10.082;2023-04-01T05:53:42;97451.19;;;8.90;67.24
64189;BME280;50493;50.970;10.082;2023-04-01T05:56:08;97450.28;;;8.72;67.26
64189;BME280;50493;50.970;10.082;2023-04-01T05:58:34;97457.78;;;8.59;67.85
64189;BME280;50493;50.970;10.082;2023-04-01T06:01:01;97453.97;;;8.66;68.97
64189;BME280;50493;50.970;10.082;2023-04-01T06:03:26;97455.03;;;8.81;68.69
64189;BME280;50493;50.970;10.082;2023-04-01T06:05:52;97465.22;;;8.48;68.56
64189;BME280;50493;50.970;10.082;2023-04-01T06:08:18;97470.97;;;8.35;69.45
64189;BME280;50493;50.970;10.082;2023-04-01T06:10:53;97464.91;;;8.95;67.75
64189;BME280;50493;50.970;10.082;2023-04-01T06:13:28;97469.97;;;8.98;67.66
64189;BME280;50493;50.970;10.082;2023-04-01T06:16:04;97467.28;;;9.00;66.58
64189;BME280;50493;50.970;10.082;2023-04-01T06:19:00;97468.75;;;8.46;68.00
64189;BME280;50493;50.970;10.082;2023-04-01T06:21:41;97474.66;;;8.90;68.62
64189;BME280;50493;50.970;10.082;2023-04-01T06:24:26;97480.38;;;8.98;67.78
64189;BME280;50493;50.970;10.082;2023-04-01T06:27:02;97473.25;;;8.62;69.42
64189;BME280;50493;50.970;10.082;2023-04-01T06:29:44;97474.13;;;8.62;69.38
64189;BME280;50493;50.970;10.082;2023-04-01T06:32:26;97480.03;;;8.85;69.98
64189;BME280;50493;50.970;10.082;2023-04-01T06:35:20;97480.81;;;8.68;69.42
64189;BME280;50493;50.970;10.082;2023-04-01T06:38:07;97476.91;;;8.78;69.40
64189;BME280;50493;50.970;10.082;2023-04-01T06:40:54;97481.66;;;9.08;70.50
64189;BME280;50493;50.970;10.082;2023-04-01T06:43:33;97480.53;;;8.95;68.97
64189;BME280;50493;50.970;10.082;2023-04-01T06:46:06;97481.78;;;9.05;69.42
64189;BME280;50493;50.970;10.082;2023-04-01T06:48:43;97480.31;;;9.19;70.70
64189;BME280;50493;50.970;10.082;2023-04-01T06:51:23;97477.19;;;9.66;67.68
64189;BME280;50493;50.970;10.082;2023-04-01T06:53:56;97478.59;;;9.73;67.74
64189;BME280;50493;50.970;10.082;2023-04-01T06:56:25;97478.81;;;9.32;66.62
64189;BME280;50493;50.970;10.082;2023-04-01T06:58:54;97488.38;;;9.51;67.88
64189;BME280;50493;50.970;10.082;2023-04-01T07:01:22;97484.44;;;9.23;68.35
64189;BME280;50493;50.970;10.082;2023-04-01T07:03:53;97478.25;;;9.06;67.24
64189;BME280;50493;50.970;10.082;2023-04-01T07:06:25;97487.41;;;9.34;67.37
64189;BME280;50493;50.970;10.082;2023-04-01T07:08:53;97483.13;;;8.95;69.21
64189;BME280;50493;50.970;10.082;2023-04-01T07:11:24;97478.09;;;9.48;69.71
64189;BME280;50493;50.970;10.082;2023-04-01T07:13:55;97477.41;;;9.44;67.29
64189;BME280;50493;50.970;10.082;2023-04-01T07:16:27;97478.38;;;9.41;68.74
64189;BME280;50493;50.970;10.082;2023-04-01T07:18:56;97474.28;;;9.55;67.71
64189;BME280;50493;50.970;10.082;2023-04-01T07:21:26;97482.69;;;9.42;69.36
64189;BME280;50493;50.970;10.082;2023-04-01T07:23:57;97484.63;;;9.56;69.68
64189;BME280;50493;50.970;10.082;2023-04-01T07:26:25;97485.22;;;9.80;68.76
64189;BME280;50493;50.970;10.082;2023-04-01T07:28:53;97477.25;;;10.36;66.19
64189;BME280;50493;50.970;10.082;2023-04-01T07:31:25;97484.91;;;10.22;66.12
64189;BME280;50493;50.970;10.082;2023-04-01T07:34:01;97490.28;;;10.01;67.95
64189;BME280;50493;50.970;10.082;2023-04-01T07:36:33;97485.03;;;9.84;67.57
64189;BME280;50493;50.970;10.082;2023-04-01T07:39:08;97482.91;;;10.09;68.54
64189;BME280;50493;50.970;10.082;2023-04-01T07:41:44;97487.03;;;9.78;68.73
64189;BME280;50493;50.970;10.082;2023-04-01T07:44:23;97491.56;;;9.75;68.96
64189;BME280;50493;50.970;10.082;2023-04-01T07:46:59;97489.59;;;9.43;70.24
64189;BME280;50493;50.970;10.082;2023-04-01T07:49:33;97498.44;;;9.22;70.14
64189;BME280;50493;50.970;10.082;2023-04-01T07:52:04;97489.59;;;9.43;69.15
64189;BME280;50493;50.970;10.082;2023-04-01T07:54:38;97495.63;;;9.63;70.07
64189;BME280;50493;50.970;10.082;2023-04-01T07:57:08;97496.31;;;9.30;70.13
64189;BME280;50493;50.970;10.082;2023-04-01T07:59:44;97494.19;;;9.38;70.73
64189;BME280;50493;50.970;10.082;2023-04-01T08:02:22;97500.78;;;9.45;69.57
64189;BME280;50493;50.970;10.082;2023-04-01T08:04:52;97496.88;;;9.73;69.36
64189;BME280;50493;50.970;10.082;2023-04-01T08:07:23;97503.72;;;9.57;70.32
64189;BME280;50493;50.970;10.082;2023-04-01T08:09:56;97505.31;;;9.04;71.76
64189;BME280;50493;50.970;10.082;2023-04-01T08:12:33;97506.75;;;9.30;70.11
64189;BME280;50493;50.970;10.082;2023-04-01T08:15:11;97506.59;;;9.33;71.20
64189;BME280;50493;50.970;10.082;2023-04-01T08:17:43;97507.44;;;9.15;71.82
64189;BME280;50493;50.970;10.082;2023-04-01T08:20:21;97509.28;;;9.12;71.22
64189;BME280;50493;50.970;10.082;2023-04-01T08:22:50;97505.84;;;8.91;71.55
64189;BME280;50493;50.970;10.082;2023-04-01T08:25:23;97515.97;;;8.78;72.22
64189;BME280;50493;50.970;10.082;2023-04-01T08:27:53;97516.19;;;8.93;71.86
64189;BME280;50493;50.970;10.082;2023-04-01T08:30:24;97510.38;;;8.67;72.50
64189;BME280;50493;50.970;10.082;2023-04-01T08:32:54;97525.38;;;8.81;72.40
64189;BME280;50493;50.970;10.082;2023-04-01T08:35:27;97518.56;;;8.99;72.50
64189;BME280;50493;50.970;10.082;2023-04-01T08:37:56;97519.84;;;9.48;70.31
64189;BME280;50493;50.970;10.082;2023-04-01T08:40:37;97516.13;;;9.71;67.76
64189;BME280;50493;50.970;10.082;2023-04-01T08:43:09;97512.06;;;9.65;68.15
64189;BME280;50493;50.970;10.082;2023-04-01T08:45:45;97514.72;;;9.63;66.79
64189;BME280;50493;50.970;10.082;2023-04-01T08:54:46;97518.50;;;9.75;67.19
64189;BME280;50493;50.970;10.082;2023-04-01T08:57:21;97511.13;;;9.66;66.52
64189;BME280;50493;50.970;10.082;2023-04-01T08:59:58;97510.63;;;9.58;66.79
64189;BME280;50493;50.970;10.082;2023-04-01T09:02:48;97520.09;;;10.14;67.01
64189;BME280;50493;50.970;10.082;2023-04-01T09:05:29;97520.25;;;10.29;65.34
64189;BME280;50493;50.970;10.082;2023-04-01T09:08:17;97522.06;;;10.09;66.69
64189;BME280;50493;50.970;10.082;2023-04-01T09:10:59;97512.44;;;10.46;65.14
64189;BME280;50493;50.970;10.082;2023-04-01T09:13:41;97521.56;;;10.38;64.30
64189;BME280;50493;50.970;10.082;2023-04-01T09:16:19;97521.00;;;10.13;65.66
64189;BME280;50493;50.970;10.082;2023-04-01T09:19:01;97524.22;;;10.01;64.73
64189;BME280;50493;50.970;10.082;2023-04-01T09:22:09;97519.16;;;10.33;64.99
64189;BME280;50493;50.970;10.082;2023-04-01T09:25:14;97518.31;;;10.50;63.25
64189;BME280;50493;50.970;10.082;2023-04-01T09:27:45;97523.47;;;10.17;64.67
64189;BME280;50493;50.970;10.082;2023-04-01T09:30:38;97526.22;;;10.66;64.91
64189;BME280;50493;50.970;10.082;2023-04-01T09:36:13;97527.47;;;10.24;65.63
64189;BME280;50493;50.970;10.082;2023-04-01T09:38:55;97532.25;;;10.51;64.45
64189;BME280;50493;50.970;10.082;2023-04-01T09:41:23;97534.66;;;10.71;64.32
64189;BME280;50493;50.970;10.082;2023-04-01T09:44:03;97530.63;;;10.66;62.67
64189;BME280;50493;50.970;10.082;2023-04-01T09:46:49;97535.81;;;10.83;62.69
64189;BME280;50493;50.970;10.082;2023-04-01T09:49:50;97536.84;;;10.63;63.41
64189;BME280;50493;50.970;10.082;2023-04-01T09:52:27;97542.31;;;10.92;63.51
64189;BME280;50493;50.970;10.082;2023-04-01T09:55:13;97541.25;;;10.78;62.35
64189;BME280;50493;50.970;10.082;2023-04-01T09:58:20;97539.16;;;11.19;61.94
64189;BME280;50493;50.970;10.082;2023-04-01T10:01:05;97546.97;;;10.34;64.67
64189;BME280;50493;50.970;10.082;2023-04-01T10:04:00;97547.69;;;10.38;65.26
64189;BME280;50493;50.970;10.082;2023-04-01T10:06:56;97553.59;;;10.41;64.12
64189;BME280;50493;50.970;10.082;2023-04-01T10:09:52;97546.66;;;10.75;61.94
64189;BME280;50493;50.970;10.082;2023-04-01T10:15:49;97556.22;;;10.59;63.21
64189;BME280;50493;50.970;10.082;2023-04-01T10:18:55;97552.53;;;10.63;62.60
64189;BME280;50493;50.970;10.082;2023-04-01T10:21:37;97558.22;;;10.36;63.62
64189;BME280;50493;50.970;10.082;2023-04-01T10:24:24;97554.03;;;10.32;65.42
64189;BME280;50493;50.970;10.082;2023-04-01T10:27:12;97555.13;;;10.45;63.51
64189;BME280;50493;50.970;10.082;2023-04-01T10:33:15;97552.97;;;11.05;63.82
64189;BME280;50493;50.970;10.082;2023-04-01T10:39:20;97561.78;;;11.20;63.79
64189;BME280;50493;50.970;10.082;2023-04-01T10:42:15;97551.31;;;11.20;63.32
64189;BME280;50493;50.970;10.082;2023-04-01T10:45:21;97562.59;;;10.71;65.28
64189;BME280;50493;50.970;10.082;2023-04-01T10:48:12;97550.66;;;10.65;66.17
64189;BME280;50493;50.970;10.082;2023-04-01T10:53:49;97549.66;;;10.68;65.34
64189;BME280;50493;50.970;10.082;2023-04-01T10:56:34;97552.25;;;10.85;64.43
64189;BME280;50493;50.970;10.082;2023-04-01T11:05:45;97565.50;;;11.15;67.40
64189;BME280;50493;50.970;10.082;2023-04-01T11:08:35;97560.25;;;11.15;66.93
64189;BME280;50493;50.970;10.082;2023-04-01T11:11:35;97557.22;;;11.07;67.99
64189;BME280;50493;50.970;10.082;2023-04-01T11:14:32;97560.41;;;11.12;66.67
64189;BME280;50493;50.970;10.082;2023-04-01T11:17:38;97565.09;;;11.06;68.65
64189;BME280;50493;50.970;10.082;2023-04-01T11:23:37;97563.91;;;11.29;67.68
64189;BME280;50493;50.970;10.082;2023-04-01T11:26:21;97565.38;;;11.51;65.49
64189;BME280;50493;50.970;10.082;2023-04-01T11:29:15;97564.44;;;11.68;69.54
64189;BME280;50493;50.970;10.082;2023-04-01T11:31:53;97562.47;;;11.39;69.98
64189;BME280;50493;50.970;10.082;2023-04-01T11:34:37;97562.69;;;11.68;68.19
64189;BME280;50493;50.970;10.082;2023-04-01T11:37:13;97565.56;;;11.30;69.72
64189;BME280;50493;50.970;10.082;2023-04-01T11:39:53;97564.63;;;11.15;66.43
64189;BME280;50493;50.970;10.082;2023-04-01T11:42:26;97555.47;;;11.24;68.41
64189;BME280;50493;50.970;10.082;2023-04-01T11:45:01;97564.66;;;11.31;69.39
64189;BME280;50493;50.970;10.082;2023-04-01T11:47:55;97571.59;;;11.32;70.22
64189;BME280;50493;50.970;10.082;2023-04-01T11:50:33;97570.59;;;11.51;67.44
64189;BME280;50493;50.970;10.082;2023-04-01T11:53:23;97570.28;;;11.89;67.32
64189;BME280;50493;50.970;10.082;2023-04-01T11:56:09;97567.03;;;12.15;67.07
64189;BME280;50493;50.970;10.082;2023-04-01T11:59:13;97573.72;;;12.36;65.00
64189;BME280;50493;50.970;10.082;2023-04-01T12:01:48;97576.75;;;12.44;66.16
64189;BME280;50493;50.970;10.082;2023-04-01T12:04:31;97581.06;;;12.14;65.00
64189;BME280;50493;50.970;10.082;2023-04-01T12:07:05;97572.34;;;12.44;61.64
64189;BME280;50493;50.970;10.082;2023-04-01T12:09:40;97576.63;;;12.31;64.62
64189;BME280;50493;50.970;10.082;2023-04-01T12:12:18;97577.66;;;12.73;61.81
64189;BME280;50493;50.970;10.082;2023-04-01T12:14:58;97579.63;;;12.39;62.65
64189;BME280;50493;50.970;10.082;2023-04-01T12:17:34;97580.66;;;12.06;64.27
64189;BME280;50493;50.970;10.082;2023-04-01T12:20:20;97576.41;;;12.95;63.75
64189;BME280;50493;50.970;10.082;2023-04-01T12:22:56;97572.28;;;13.05;60.35
64189;BME280;50493;50.970;10.082;2023-04-01T12:25:37;97577.66;;;12.73;61.90
64189;BME280;50493;50.970;10.082;2023-04-01T12:28:12;97586.09;;;12.18;60.79
64189;BME280;50493;50.970;10.082;2023-04-01T12:30:58;97586.91;;;12.34;62.39
64189;BME280;50493;50.970;10.082;2023-04-01T12:33:51;97587.16;;;12.45;61.59
64189;BME280;50493;50.970;10.082;2023-04-01T12:36:35;97584.78;;;12.10;62.25
64189;BME280;50493;50.970;10.082;2023-04-01T12:39:19;97594.63;;;11.75;62.86
64189;BME280;50493;50.970;10.082;2023-04-01T12:41:52;97593.56;;;11.61;67.32
64189;BME280;50493;50.970;10.082;2023-04-01T12:44:36;97596.03;;;11.31;68.24
64189;BME280;50493;50.970;10.082;2023-04-01T12:47:16;97609.84;;;11.17;70.34
64189;BME280;50493;50.970;10.082;2023-04-01T12:49:55;97604.06;;;10.94;70.58
64189;BME280;50493;50.970;10.082;2023-04-01T12:52:26;97599.75;;;10.93;69.80
64189;BME280;50493;50.970;10.082;2023-04-01T12:55:15;97595.88;;;11.18;68.99
64189;BME280;50493;50.970;10.082;2023-04-01T12:58:01;97602.56;;;11.56;71.62
64189;BME280;50493;50.970;10.082;2023-04-01T13:00:44;97602.00;;;11.51;70.54
64189;BME280;50493;50.970;10.082;2023-04-01T13:03:19;97606.94;;;11.89;68.32
64189;BME280;50493;50.970;10.082;2023-04-01T13:06:07;97609.13;;;11.80;69.15
64189;BME280;50493;50.970;10.082;2023-04-01T13:08:46;97612.88;;;11.59;67.97
64189;BME280;50493;50.970;10.082;2023-04-01T13:11:19;97607.66;;;11.91;67.90
64189;BME280;50493;50.970;10.082;2023-04-01T13:14:15;97613.16;;;12.18;64.99
64189;BME280;50493;50.970;10.082;2023-04-01T13:16:52;97614.44;;;11.95;66.29
64189;BME280;50493;50.970;10.082;2023-04-01T13:19:21;97619.59;;;11.64;66.96
64189;BME280;50493;50.970;10.082;2023-04-01T13:21:55;97617.22;;;11.92;66.56
64189;BME280;50493;50.970;10.082;2023-04-01T13:24:31;97623.28;;;12.08;64.61
64189;BME280;50493;50.970;10.082;2023-04-01T13:26:59;97626.84;;;11.75;64.71
64189;BME280;50493;50.970;10.082;2023-04-01T13:29:30;97627.38;;;11.98;64.49
64189;BME280;50493;50.970;10.082;2023-04-01T13:32:16;97629.91;;;11.84;66.08
64189;BME280;50493;50.970;10.082;2023-04-01T13:34:52;97628.88;;;11.70;68.80
64189;BME280;50493;50.970;10.082;2023-04-01T13:37:36;97634.44;;;12.28;67.11
64189;BME280;50493;50.970;10.082;2023-04-01T13:40:24;97633.38;;;12.46;68.13
64189;BME280;50493;50.970;10.082;2023-04-01T13:42:54;97636.34;;;12.40;66.73
64189;BME280;50493;50.970;10.082;2023-04-01T13:45:23;97634.91;;;12.51;64.68
64189;BME280;50493;50.970;10.082;2023-04-01T13:48:08;97634.72;;;12.54;67.62
64189;BME280;50493;50.970;10.082;2023-04-01T13:50:51;97644.53;;;12.50;68.22
64189;BME280;50493;50.970;10.082;2023-04-01T13:56:15;97641.66;;;12.55;68.09
64189;BME280;50493;50.970;10.082;2023-04-01T13:59:10;97652.69;;;12.13;68.41
64189;BME280;50493;50.970;10.082;2023-04-01T14:01:42;97651.19;;;12.09;68.96
64189;BME280;50493;50.970;10.082;2023-04-01T14:04:33;97648.41;;;11.47;71.17
64189;BME280;50493;50.970;10.082;2023-04-01T14:07:09;97657.69;;;11.53;69.80
64189;BME280;50493;50.970;10.082;2023-04-01T14:09:45;97648.41;;;11.47;67.87